createdAt,value
2023-04-19T00:00:47.012Z,61.94
2023-04-19T00:02:51.551Z,61.62
2023-04-19T00:04:53.469Z,61.81
2023-04-19T00:06:55.040Z,62.09
2023-04-19T00:08:56.371Z,61.59
2023-04-19T00:10:57.668Z,61.47
2023-04-19T00:12:58.968Z,61.91
2023-04-19T00:15:00.284Z,62.25
2023-04-19T00:17:01.700Z,61.78
2023-04-19T00:19:03.020Z,61.80
2023-04-19T00:21:04.349Z,61.41
2023-04-19T00:23:05.653Z,61.75
2023-04-19T00:25:07.095Z,61.62
2023-04-19T00:27:08.459Z,61.46
2023-04-19T00:29:09.863Z,61.32
2023-04-19T00:31:11.304Z,61.83
2023-04-19T00:33:12.962Z,61.31
2023-04-19T00:35:14.921Z,61.57
2023-04-19T00:37:16.218Z,61.47
2023-04-19T00:39:17.562Z,61.54
2023-04-19T00:41:18.903Z,62.17
2023-04-19T00:43:20.243Z,62.08
2023-04-19T00:45:21.620Z,62.17
2023-04-19T00:47:23.032Z,62.16
2023-04-19T00:49:24.416Z,62.15
2023-04-19T00:51:27.282Z,61.85
2023-04-19T00:53:28.640Z,62.31
2023-04-19T00:55:29.939Z,62.25
2023-04-19T00:57:31.334Z,62.50
2023-04-19T00:59:32.630Z,62.57
2023-04-19T01:01:34.034Z,62.13
2023-04-19T01:03:35.646Z,62.89
2023-04-19T01:05:37.108Z,62.63
2023-04-19T01:07:38.444Z,62.30
2023-04-19T01:09:39.781Z,62.25
2023-04-19T01:11:43.165Z,62.08
2023-04-19T01:13:44.935Z,62.35
2023-04-19T01:15:46.301Z,62.27
2023-04-19T01:17:47.809Z,62.07
2023-04-19T01:19:49.160Z,61.67
2023-04-19T01:21:52.818Z,61.32
2023-04-19T01:23:54.205Z,62.20
2023-04-19T01:25:56.047Z,61.75
2023-04-19T01:27:57.378Z,61.35
2023-04-19T01:29:58.732Z,61.92
2023-04-19T01:32:00.084Z,61.84
2023-04-19T01:34:01.418Z,61.68
2023-04-19T01:36:02.810Z,61.66
2023-04-19T01:38:05.424Z,61.88
2023-04-19T01:40:07.084Z,61.06
2023-04-19T01:42:08.404Z,61.14
2023-04-19T01:44:09.704Z,61.76
2023-04-19T01:46:11.310Z,61.61
2023-04-19T01:48:12.636Z,61.47
2023-04-19T01:50:13.934Z,61.51
2023-04-19T01:52:15.339Z,61.52
2023-04-19T01:54:16.843Z,61.38
2023-04-19T01:56:18.314Z,61.35
2023-04-19T01:58:19.670Z,61.16
2023-04-19T02:00:20.964Z,61.26
2023-04-19T02:02:22.458Z,61.31
2023-04-19T02:04:23.882Z,61.67
2023-04-19T02:06:26.991Z,61.76
2023-04-19T02:08:28.396Z,61.82
2023-04-19T02:10:29.692Z,61.66
2023-04-19T02:12:31.259Z,61.68
2023-04-19T02:14:32.794Z,62.03
2023-04-19T02:16:36.053Z,61.58
2023-04-19T02:18:40.700Z,61.82
2023-04-19T02:20:42.009Z,61.97
2023-04-19T02:22:44.025Z,61.91
2023-04-19T02:24:45.688Z,62.02
2023-04-19T02:26:47.031Z,61.71
2023-04-19T02:28:48.355Z,62.08
2023-04-19T02:30:49.662Z,61.49
2023-04-19T02:32:51.110Z,61.13
2023-04-19T02:34:52.455Z,61.48
2023-04-19T02:36:53.769Z,61.35
2023-04-19T02:38:55.100Z,61.63
2023-04-19T02:40:56.477Z,61.17
2023-04-19T02:42:57.879Z,61.21
2023-04-19T02:44:59.195Z,61.38
2023-04-19T02:47:00.869Z,61.05
2023-04-19T02:49:02.262Z,60.86
2023-04-19T02:51:03.554Z,60.42
2023-04-19T02:53:04.859Z,60.45
2023-04-19T02:55:06.176Z,60.47
2023-04-19T02:57:07.509Z,59.59
2023-04-19T02:59:08.845Z,59.61
2023-04-19T03:01:10.190Z,59.54
2023-04-19T03:03:11.732Z,59.68
2023-04-19T03:05:13.286Z,59.46
2023-04-19T03:07:14.616Z,59.42
2023-04-19T03:09:16.084Z,59.72
2023-04-19T03:11:17.411Z,59.30
2023-04-19T03:13:18.728Z,59.13
2023-04-19T03:15:20.620Z,58.82
2023-04-19T03:17:21.928Z,58.63
2023-04-19T03:19:23.266Z,58.49
2023-04-19T03:21:27.529Z,58.45
2023-04-19T03:23:28.924Z,58.27
2023-04-19T03:25:30.231Z,58.13
2023-04-19T03:27:31.558Z,58.11
2023-04-19T03:29:32.897Z,58.31
2023-04-19T03:31:34.296Z,57.89
2023-04-19T03:33:35.675Z,58.06
2023-04-19T03:35:36.964Z,58.00
2023-04-19T03:37:38.321Z,57.98
2023-04-19T03:39:39.923Z,57.71
2023-04-19T03:41:41.322Z,58.13
2023-04-19T03:43:42.612Z,58.15
2023-04-19T03:45:43.907Z,57.82
2023-04-19T03:47:45.949Z,57.75
2023-04-19T03:49:47.632Z,57.86
2023-04-19T03:51:48.951Z,57.96
2023-04-19T03:53:50.277Z,58.05
2023-04-19T03:55:51.579Z,58.27
2023-04-19T03:57:52.887Z,58.21
2023-04-19T03:59:54.196Z,57.94
2023-04-19T04:01:56.039Z,58.06
2023-04-19T04:03:57.697Z,57.98
2023-04-19T04:05:59.184Z,58.00
2023-04-19T04:08:00.982Z,58.36
2023-04-19T04:10:02.308Z,58.26
2023-04-19T04:12:03.642Z,58.74
2023-04-19T04:14:04.949Z,58.43
2023-04-19T04:16:06.299Z,58.55
2023-04-19T04:18:09.128Z,58.52
2023-04-19T04:20:11.887Z,58.85
2023-04-19T04:22:13.193Z,58.66
2023-04-19T04:24:14.722Z,58.40
2023-04-19T04:26:16.214Z,58.47
2023-04-19T04:28:17.527Z,58.41
2023-04-19T04:30:18.836Z,58.40
2023-04-19T04:32:23.568Z,58.07
2023-04-19T04:34:25.853Z,57.96
2023-04-19T04:36:29.739Z,57.86
2023-04-19T04:38:31.323Z,57.67
2023-04-19T04:40:33.510Z,57.30
2023-04-19T04:42:35.699Z,57.30
2023-04-19T04:44:37.284Z,56.87
2023-04-19T04:46:38.623Z,56.65
2023-04-19T04:48:40.400Z,56.57
2023-04-19T04:50:41.780Z,56.86
2023-04-19T04:52:43.133Z,56.73
2023-04-19T04:54:44.434Z,56.49
2023-04-19T04:56:46.017Z,56.44
2023-04-19T04:58:47.330Z,56.53
2023-04-19T05:00:49.134Z,56.57
2023-04-19T05:02:50.575Z,56.20
2023-04-19T05:04:52.017Z,56.48
2023-04-19T05:06:53.385Z,56.58
2023-04-19T05:08:54.730Z,56.45
2023-04-19T05:10:56.063Z,56.34
2023-04-19T05:12:57.395Z,56.50
2023-04-19T05:14:58.799Z,56.63
2023-04-19T05:17:00.200Z,56.60
2023-04-19T05:19:02.205Z,56.93
2023-04-19T05:21:03.510Z,56.58
2023-04-19T05:23:04.863Z,56.96
2023-04-19T05:25:06.202Z,56.92
2023-04-19T05:27:07.497Z,57.04
2023-04-19T05:29:08.794Z,57.06
2023-04-19T05:31:10.239Z,56.64
2023-04-19T05:33:11.611Z,56.63
2023-04-19T05:35:13.195Z,56.66
2023-04-19T05:37:14.506Z,56.58
2023-04-19T05:39:15.851Z,57.19
2023-04-19T05:41:17.150Z,56.72
2023-04-19T05:43:18.522Z,57.03
2023-04-19T05:45:19.815Z,57.01
2023-04-19T05:47:21.398Z,56.89
2023-04-19T05:49:22.786Z,56.69
2023-04-19T05:51:24.096Z,56.70
2023-04-19T05:53:25.487Z,56.72
2023-04-19T05:55:26.830Z,56.73
2023-04-19T05:57:28.168Z,56.58
2023-04-19T05:59:29.576Z,56.98
2023-04-19T06:01:30.865Z,56.87
2023-04-19T06:03:33.511Z,56.55
2023-04-19T06:05:34.986Z,56.47
2023-04-19T06:07:40.590Z,56.55
2023-04-19T06:09:45.239Z,56.18
2023-04-19T06:11:50.643Z,56.54
2023-04-19T06:13:52.807Z,55.95
2023-04-19T06:15:54.184Z,55.98
2023-04-19T06:17:57.463Z,55.61
2023-04-19T06:20:00.958Z,55.87
2023-04-19T06:22:02.571Z,55.54
2023-04-19T06:24:03.924Z,55.59
2023-04-19T06:26:05.343Z,55.73
2023-04-19T06:28:06.784Z,55.77
2023-04-19T06:30:08.332Z,55.40
2023-04-19T06:32:09.634Z,55.58
2023-04-19T06:34:11.187Z,55.45
2023-04-19T06:36:12.653Z,55.62
2023-04-19T06:38:13.956Z,55.63
2023-04-19T06:40:15.273Z,55.76
2023-04-19T06:42:19.788Z,55.69
2023-04-19T06:44:21.128Z,55.83
2023-04-19T06:46:22.503Z,55.81
2023-04-19T06:48:23.808Z,55.71
2023-04-19T06:50:25.322Z,55.94
2023-04-19T06:52:26.615Z,56.11
2023-04-19T06:54:27.909Z,56.04
2023-04-19T06:56:29.351Z,56.08
2023-04-19T06:58:32.714Z,56.43
2023-04-19T07:00:34.691Z,56.23
2023-04-19T07:02:36.088Z,56.46
2023-04-19T07:04:37.782Z,56.20
2023-04-19T07:06:39.301Z,56.08
2023-04-19T07:08:49.731Z,56.07
2023-04-19T07:10:51.841Z,56.13
2023-04-19T07:12:53.141Z,56.17
2023-04-19T07:14:56.597Z,56.46
2023-04-19T07:16:57.944Z,55.94
2023-04-19T07:18:59.292Z,56.35
2023-04-19T07:21:00.685Z,56.09
2023-04-19T07:23:02.282Z,56.05
2023-04-19T07:25:03.763Z,55.98
2023-04-19T07:27:05.097Z,56.09
2023-04-19T07:29:06.392Z,56.16
2023-04-19T07:31:07.861Z,55.90
2023-04-19T07:33:09.288Z,55.95
2023-04-19T07:35:10.803Z,55.90
2023-04-19T07:37:12.558Z,55.23
2023-04-19T07:39:13.877Z,55.61
2023-04-19T07:41:15.211Z,55.12
2023-04-19T07:43:16.724Z,54.64
2023-04-19T07:45:18.803Z,54.84
2023-04-19T07:47:22.822Z,54.59
2023-04-19T07:49:24.123Z,54.21
2023-04-19T07:51:26.202Z,54.30
2023-04-19T07:53:27.625Z,53.93
2023-04-19T07:55:28.931Z,53.97
2023-04-19T07:57:30.353Z,54.41
2023-04-19T07:59:33.502Z,54.46
2023-04-19T08:01:35.009Z,54.28
2023-04-19T08:03:37.033Z,54.67
2023-04-19T08:05:38.571Z,54.15
2023-04-19T08:07:40.057Z,54.31
2023-04-19T08:09:41.573Z,54.59
2023-04-19T08:11:43.237Z,55.09
2023-04-19T08:13:55.679Z,55.30
2023-04-19T08:16:40.330Z,55.13
2023-04-19T08:18:27.181Z,55.63
2023-04-19T08:20:28.551Z,55.54
2023-04-19T08:22:29.878Z,55.45
2023-04-19T08:24:31.255Z,55.79
2023-04-19T08:26:32.608Z,55.83
2023-04-19T08:28:33.894Z,56.25
2023-04-19T08:30:35.245Z,56.19
2023-04-19T08:32:36.641Z,56.33
2023-04-19T08:34:37.984Z,56.21
2023-04-19T08:36:45.658Z,56.26
2023-04-19T08:39:04.096Z,56.08
2023-04-19T08:41:06.115Z,56.48
2023-04-19T08:43:07.591Z,56.33
2023-04-19T08:45:27.028Z,56.28
2023-04-19T08:47:33.540Z,56.05
2023-04-19T08:49:35.839Z,56.26
2023-04-19T08:51:37.140Z,56.25
2023-04-19T08:53:38.438Z,56.28
2023-04-19T08:55:41.000Z,56.57
2023-04-19T08:57:46.876Z,56.42
2023-04-19T08:59:55.778Z,55.93
2023-04-19T09:01:59.314Z,55.93
2023-04-19T09:04:10.293Z,55.68
2023-04-19T09:06:22.360Z,55.70
2023-04-19T09:08:24.284Z,55.47
2023-04-19T09:10:26.357Z,55.37
2023-04-19T09:12:27.948Z,55.20
2023-04-19T09:14:29.373Z,55.17
2023-04-19T09:16:30.707Z,54.91
2023-04-19T09:18:34.359Z,54.79
2023-04-19T09:20:37.498Z,54.48
2023-04-19T09:22:38.816Z,54.24
2023-04-19T09:26:44.352Z,54.29
2023-04-19T09:28:45.713Z,54.40
2023-04-19T09:31:00.012Z,54.11
2023-04-19T09:33:08.482Z,54.22
2023-04-19T09:35:09.848Z,54.33
2023-04-19T09:37:15.154Z,54.74
2023-04-19T09:39:29.223Z,54.82
2023-04-19T09:41:30.543Z,54.57
2023-04-19T09:43:58.172Z,54.92
2023-04-19T09:45:53.136Z,54.82
2023-04-19T09:47:54.462Z,55.18
2023-04-19T09:49:56.108Z,55.08
2023-04-19T09:51:57.824Z,55.37
2023-04-19T09:53:59.125Z,55.26
2023-04-19T09:56:02.671Z,54.99
2023-04-19T09:58:05.056Z,54.54
2023-04-19T10:00:09.430Z,54.58
2023-04-19T10:02:10.905Z,55.14
2023-04-19T10:04:24.095Z,54.99
2023-04-19T10:06:51.808Z,55.47
2023-04-19T10:08:56.177Z,55.53
2023-04-19T10:10:59.179Z,55.32
2023-04-19T10:13:15.906Z,54.93
2023-04-19T10:15:20.843Z,55.15
2023-04-19T10:17:22.517Z,55.64
2023-04-19T10:19:24.001Z,55.15
2023-04-19T10:21:25.393Z,55.14
2023-04-19T10:23:26.695Z,54.98
2023-04-19T10:25:27.985Z,55.15
2023-04-19T10:27:29.324Z,54.89
2023-04-19T10:29:30.727Z,55.26
2023-04-19T10:31:32.230Z,54.89
2023-04-19T10:33:33.544Z,55.03
2023-04-19T10:35:34.872Z,55.14
2023-04-19T10:37:36.212Z,54.63
2023-04-19T10:39:37.504Z,54.74
2023-04-19T10:41:38.807Z,55.01
2023-04-19T10:43:40.180Z,54.83
2023-04-19T10:45:41.503Z,54.74
2023-04-19T10:47:42.878Z,54.34
2023-04-19T10:49:44.215Z,54.32
2023-04-19T10:51:45.625Z,54.53
2023-04-19T10:53:46.994Z,53.96
2023-04-19T10:55:48.319Z,54.19
2023-04-19T10:57:49.665Z,54.14
2023-04-19T10:59:50.973Z,54.10
2023-04-19T11:01:52.671Z,53.78
2023-04-19T11:03:54.527Z,53.70
2023-04-19T11:05:56.211Z,53.89
2023-04-19T11:07:57.826Z,54.37
2023-04-19T11:09:59.214Z,54.50
2023-04-19T11:12:02.306Z,54.30
2023-04-19T11:14:04.199Z,54.73
2023-04-19T11:16:05.673Z,54.45
2023-04-19T11:18:12.892Z,55.03
2023-04-19T11:20:14.710Z,55.17
2023-04-19T11:22:16.171Z,54.95
2023-04-19T11:24:19.111Z,54.91
2023-04-19T11:26:21.103Z,55.20
2023-04-19T11:28:22.409Z,55.06
2023-04-19T11:30:23.708Z,55.16
2023-04-19T11:32:25.059Z,55.47
2023-04-19T11:34:26.365Z,55.03
2023-04-19T11:36:27.706Z,54.96
2023-04-19T11:38:28.999Z,55.30
2023-04-19T11:40:30.412Z,54.97
2023-04-19T11:42:31.746Z,55.42
2023-04-19T11:44:34.183Z,55.33
2023-04-19T11:46:35.604Z,55.04
2023-04-19T11:48:36.935Z,55.25
2023-04-19T11:50:38.383Z,55.05
2023-04-19T11:52:39.810Z,55.24
2023-04-19T11:54:42.240Z,55.32
2023-04-19T11:56:43.560Z,55.21
2023-04-19T11:58:45.390Z,55.03
2023-04-19T12:00:46.776Z,55.27
2023-04-19T12:02:48.301Z,54.81
2023-04-19T12:04:49.878Z,54.72
2023-04-19T12:06:51.528Z,54.80
2023-04-19T12:08:52.920Z,55.06
2023-04-19T12:10:54.267Z,54.82
2023-04-19T12:12:55.747Z,54.63
2023-04-19T12:14:57.059Z,54.69
2023-04-19T12:16:58.478Z,54.42
2023-04-19T12:19:02.723Z,54.78
2023-04-19T12:21:04.143Z,54.35
2023-04-19T12:23:06.859Z,54.14
2023-04-19T12:25:08.558Z,54.53
2023-04-19T12:27:10.920Z,54.61
2023-04-19T12:29:12.289Z,54.49
2023-04-19T12:31:13.595Z,54.56
2023-04-19T12:33:14.963Z,54.61
2023-04-19T12:35:16.303Z,54.34
2023-04-19T12:37:17.627Z,54.26
2023-04-19T12:39:18.912Z,54.64
2023-04-19T12:41:21.085Z,54.65
2023-04-19T12:43:22.467Z,54.70
2023-04-19T12:45:23.796Z,54.86
2023-04-19T12:47:25.154Z,54.96
2023-04-19T12:49:26.772Z,54.76
2023-04-19T12:51:28.264Z,54.82
2023-04-19T12:53:29.987Z,55.21
2023-04-19T12:55:31.739Z,54.95
2023-04-19T12:57:33.051Z,54.92
2023-04-19T12:59:34.355Z,54.97
2023-04-19T13:01:35.775Z,55.06
2023-04-19T13:03:37.502Z,55.09
2023-04-19T13:05:39.160Z,55.03
2023-04-19T13:07:40.590Z,55.30
2023-04-19T13:09:41.891Z,49.57
2023-04-19T13:11:43.243Z,51.47
2023-04-19T13:13:44.544Z,50.84
2023-04-19T13:15:46.042Z,50.87
2023-04-19T13:17:48.209Z,50.35
2023-04-19T13:19:49.610Z,51.18
2023-04-19T13:21:53.970Z,50.90
2023-04-19T13:23:57.965Z,50.92
2023-04-19T13:25:59.387Z,51.07
2023-04-19T13:28:01.132Z,51.54
2023-04-19T13:30:02.443Z,51.13
2023-04-19T13:32:07.272Z,51.84
2023-04-19T13:34:08.634Z,52.50
2023-04-19T13:36:09.935Z,52.50
2023-04-19T13:38:11.269Z,51.89
2023-04-19T13:40:19.343Z,52.89
2023-04-19T13:42:21.180Z,52.98
2023-04-19T13:44:22.518Z,52.71
2023-04-19T13:46:23.831Z,53.40
2023-04-19T13:48:28.707Z,53.00
2023-04-19T13:50:30.068Z,52.80
2023-04-19T13:52:31.414Z,52.81
2023-04-19T13:54:32.813Z,53.85
2023-04-19T13:56:34.159Z,54.82
2023-04-19T13:58:35.550Z,55.33
2023-04-19T14:00:37.378Z,55.72
2023-04-19T14:02:38.929Z,55.63
2023-04-19T14:04:40.535Z,55.83
2023-04-19T14:06:41.912Z,55.99
2023-04-19T14:08:43.374Z,55.89
2023-04-19T14:10:45.196Z,55.81
2023-04-19T14:12:46.469Z,55.79
2023-04-19T14:14:47.771Z,56.06
2023-04-19T14:16:49.166Z,55.95
2023-04-19T14:18:50.680Z,56.29
2023-04-19T14:20:52.148Z,56.03
2023-04-19T14:22:55.238Z,56.50
2023-04-19T14:24:56.600Z,56.46
2023-04-19T14:27:10.306Z,56.54
2023-04-19T14:29:12.609Z,56.22
2023-04-19T14:31:13.957Z,56.54
2023-04-19T14:33:15.327Z,56.46
2023-04-19T14:35:19.665Z,56.03
2023-04-19T14:37:21.097Z,56.59
2023-04-19T14:39:22.393Z,56.19
2023-04-19T14:41:23.804Z,56.20
2023-04-19T14:43:25.136Z,56.55
2023-04-19T14:45:27.639Z,55.90
2023-04-19T14:47:29.064Z,56.15
2023-04-19T14:49:33.222Z,56.11
2023-04-19T14:51:34.542Z,56.15
2023-04-19T14:53:36.013Z,56.05
2023-04-19T14:55:40.303Z,55.61
2023-04-19T14:57:41.605Z,55.77
2023-04-19T14:59:43.141Z,55.61
2023-04-19T15:01:44.538Z,55.75
2023-04-19T15:03:49.144Z,55.43
2023-04-19T15:05:50.772Z,55.52
2023-04-19T15:08:04.272Z,55.72
2023-04-19T15:10:05.972Z,55.78
2023-04-19T15:12:07.267Z,55.43
2023-04-19T15:14:08.604Z,55.10
2023-04-19T15:16:09.955Z,55.41
2023-04-19T15:18:14.610Z,55.22
2023-04-19T15:20:15.906Z,55.45
2023-04-19T15:22:17.264Z,55.35
2023-04-19T15:24:18.636Z,55.45
2023-04-19T15:26:19.930Z,55.29
2023-04-19T15:28:21.245Z,55.74
2023-04-19T15:30:22.561Z,55.49
2023-04-19T15:32:23.949Z,54.79
2023-04-19T15:34:25.435Z,54.10
2023-04-19T15:36:29.623Z,54.37
2023-04-19T15:38:30.940Z,55.11
2023-04-19T15:40:32.395Z,54.82
2023-04-19T15:42:33.738Z,55.15
2023-04-19T15:44:35.047Z,55.09
2023-04-19T15:46:36.385Z,55.00
2023-04-19T15:48:37.737Z,55.20
2023-04-19T15:50:39.037Z,55.36
2023-04-19T15:52:40.333Z,53.56
2023-04-19T15:54:41.641Z,54.08
2023-04-19T15:56:42.976Z,54.80
2023-04-19T15:58:44.305Z,54.92
2023-04-19T16:00:45.798Z,55.02
2023-04-19T16:02:48.126Z,54.88
2023-04-19T16:04:49.674Z,55.36
2023-04-19T16:06:57.446Z,55.14
2023-04-19T16:08:58.773Z,55.21
2023-04-19T16:11:00.219Z,55.35
2023-04-19T16:13:02.466Z,55.22
2023-04-19T16:15:04.783Z,55.19
2023-04-19T16:17:06.120Z,55.07
2023-04-19T16:19:07.416Z,55.69
2023-04-19T16:21:10.549Z,55.55
2023-04-19T16:23:12.079Z,55.67
2023-04-19T16:25:14.191Z,55.46
2023-04-19T16:27:15.524Z,55.15
2023-04-19T16:29:17.087Z,55.36
2023-04-19T16:31:18.619Z,55.11
2023-04-19T16:33:19.993Z,54.99
2023-04-19T16:35:21.433Z,55.23
2023-04-19T16:37:22.728Z,55.51
2023-04-19T16:39:30.057Z,55.49
2023-04-19T16:41:31.438Z,55.58
2023-04-19T16:43:32.727Z,55.45
2023-04-19T16:45:34.099Z,54.40
2023-04-19T16:47:35.533Z,55.09
2023-04-19T16:49:36.921Z,54.74
2023-04-19T16:51:38.287Z,54.10
2023-04-19T16:53:39.606Z,54.17
2023-04-19T16:55:40.939Z,54.70
2023-04-19T16:57:42.326Z,54.49
2023-04-19T16:59:43.655Z,54.53
2023-04-19T17:01:44.978Z,54.67
2023-04-19T17:03:47.490Z,55.16
2023-04-19T17:05:48.831Z,54.93
2023-04-19T17:09:51.544Z,54.83
2023-04-19T17:11:52.854Z,54.75
2023-04-19T17:13:56.089Z,54.55
2023-04-19T17:15:58.137Z,54.46
2023-04-19T17:17:59.637Z,54.87
2023-04-19T17:20:02.181Z,55.25
2023-04-19T17:22:05.724Z,55.33
2023-04-19T17:24:07.284Z,55.02
2023-04-19T17:26:08.579Z,55.50
2023-04-19T17:28:09.905Z,55.44
2023-04-19T17:30:14.014Z,55.53
2023-04-19T17:32:15.541Z,55.56
2023-04-19T17:34:16.965Z,55.71
2023-04-19T17:38:20.085Z,55.58
2023-04-19T17:40:21.424Z,55.24
2023-04-19T17:42:22.751Z,55.39
2023-04-19T17:44:24.071Z,55.81
2023-04-19T17:46:25.591Z,54.65
2023-04-19T17:48:29.867Z,54.89
2023-04-19T17:50:31.222Z,55.13
2023-04-19T17:52:32.548Z,55.58
2023-04-19T17:54:33.884Z,56.39
2023-04-19T17:56:35.218Z,55.43
2023-04-19T17:58:36.571Z,54.43
2023-04-19T18:00:37.885Z,54.79
2023-04-19T18:02:40.715Z,55.72
2023-04-19T18:04:44.643Z,55.33
2023-04-19T18:06:46.408Z,55.42
2023-04-19T18:08:48.936Z,55.66
2023-04-19T18:10:51.028Z,55.69
2023-04-19T18:12:52.385Z,55.61
2023-04-19T18:14:53.749Z,55.73
2023-04-19T18:17:03.782Z,55.63
2023-04-19T18:19:05.119Z,55.67
2023-04-19T18:21:06.460Z,55.30
2023-04-19T18:23:07.767Z,55.26
2023-04-19T18:25:11.973Z,55.67
2023-04-19T18:27:13.308Z,55.81
2023-04-19T18:29:19.261Z,55.52
2023-04-19T18:31:20.626Z,55.23
2023-04-19T18:33:21.977Z,55.07
2023-04-19T18:35:23.364Z,55.24
2023-04-19T18:37:24.690Z,55.18
2023-04-19T18:39:26.211Z,54.85
2023-04-19T18:41:30.186Z,55.21
2023-04-19T18:43:31.652Z,55.13
2023-04-19T18:45:33.435Z,55.58
2023-04-19T18:47:43.849Z,54.59
2023-04-19T18:50:04.598Z,54.95
2023-04-19T18:52:06.352Z,55.39
2023-04-19T18:54:07.663Z,55.24
2023-04-19T18:56:10.055Z,55.36
2023-04-19T18:58:12.125Z,55.36
2023-04-19T19:00:14.445Z,55.47
2023-04-19T19:02:18.836Z,55.80
2023-04-19T19:04:48.026Z,55.97
2023-04-19T19:06:47.740Z,56.40
2023-04-19T19:08:50.217Z,56.12
2023-04-19T19:12:55.899Z,55.42
2023-04-19T19:14:57.521Z,55.75
2023-04-19T19:16:59.113Z,55.77
2023-04-19T19:19:00.521Z,56.40
2023-04-19T19:21:05.013Z,56.06
2023-04-19T19:23:06.321Z,56.03
2023-04-19T19:25:07.695Z,56.20
2023-04-19T19:27:09.214Z,56.30
2023-04-19T19:29:16.295Z,56.77
2023-04-19T19:31:17.993Z,56.37
2023-04-19T19:33:19.794Z,56.56
2023-04-19T19:35:21.104Z,56.74
2023-04-19T19:37:22.416Z,56.40
2023-04-19T19:39:23.871Z,56.65
2023-04-19T19:41:51.543Z,57.01
2023-04-19T19:43:46.560Z,56.76
2023-04-19T19:45:50.536Z,56.40
2023-04-19T19:47:52.012Z,56.45
2023-04-19T19:52:16.845Z,55.49
2023-04-19T19:54:18.175Z,54.76
2023-04-19T19:56:22.888Z,54.79
2023-04-19T19:58:46.429Z,55.18
2023-04-19T20:00:50.293Z,55.08
2023-04-19T20:02:55.981Z,55.44
2023-04-19T20:04:58.009Z,55.20
2023-04-19T20:09:04.515Z,55.42
2023-04-19T20:11:06.129Z,55.36
2023-04-19T20:13:07.514Z,55.43
2023-04-19T20:15:08.848Z,55.36
2023-04-19T20:17:10.159Z,55.33
2023-04-19T20:19:11.618Z,55.54
2023-04-19T20:21:13.015Z,55.81
2023-04-19T20:23:14.379Z,55.85
2023-04-19T20:25:15.670Z,55.99
2023-04-19T20:27:17.028Z,55.65
2023-04-19T20:29:21.283Z,55.75
2023-04-19T20:31:23.993Z,56.69
2023-04-19T20:33:25.602Z,55.11
2023-04-19T20:35:27.213Z,54.92
2023-04-19T20:37:29.908Z,54.93
2023-04-19T20:39:31.217Z,54.56
2023-04-19T20:41:32.555Z,55.36
2023-04-19T20:43:33.885Z,55.56
2023-04-19T20:45:35.220Z,51.04
2023-04-19T20:47:38.402Z,50.29
2023-04-19T20:49:39.736Z,52.18
2023-04-19T20:51:41.049Z,52.07
2023-04-19T20:53:42.871Z,52.75
2023-04-19T20:55:44.726Z,52.82
2023-04-19T20:57:46.021Z,53.71
2023-04-19T20:59:49.166Z,54.00
2023-04-19T21:01:50.555Z,54.50
2023-04-19T21:03:55.174Z,54.30
2023-04-19T21:05:56.706Z,54.97
2023-04-19T21:07:58.004Z,54.98
2023-04-19T21:09:59.304Z,55.12
2023-04-19T21:12:02.260Z,55.07
2023-04-19T21:14:03.563Z,55.22
2023-04-19T21:16:04.881Z,55.24
2023-04-19T21:18:06.367Z,55.98
2023-04-19T21:20:12.149Z,55.32
2023-04-19T21:22:13.590Z,55.53
2023-04-19T21:24:15.033Z,55.18
2023-04-19T21:26:16.437Z,55.40
2023-04-19T21:28:17.863Z,55.27
2023-04-19T21:30:20.433Z,55.50
2023-04-19T21:32:22.867Z,55.79
2023-04-19T21:34:24.258Z,55.62
2023-04-19T21:36:26.297Z,55.88
2023-04-19T21:38:27.713Z,55.48
2023-04-19T21:40:29.022Z,55.87
2023-04-19T21:42:31.136Z,56.45
2023-04-19T21:44:32.462Z,55.92
2023-04-19T21:46:34.992Z,56.25
2023-04-19T21:48:36.415Z,56.62
2023-04-19T21:50:37.715Z,56.53
2023-04-19T21:52:39.062Z,56.77
2023-04-19T21:54:40.463Z,57.06
2023-04-19T21:56:41.780Z,56.94
2023-04-19T21:58:43.076Z,56.81
2023-04-19T22:00:45.547Z,57.14
2023-04-19T22:02:47.166Z,57.30
2023-04-19T22:04:48.717Z,57.36
2023-04-19T22:06:50.508Z,57.25
2023-04-19T22:08:51.815Z,57.09
2023-04-19T22:10:53.631Z,57.25
2023-04-19T22:12:58.869Z,57.84
2023-04-19T22:15:01.316Z,57.86
2023-04-19T22:17:03.202Z,57.66
2023-04-19T22:19:04.513Z,57.99
2023-04-19T22:21:06.416Z,58.32
2023-04-19T22:23:07.743Z,57.67
2023-04-19T22:25:09.086Z,57.89
2023-04-19T22:27:10.467Z,58.43
2023-04-19T22:29:11.755Z,58.34
2023-04-19T22:31:13.052Z,58.58
2023-04-19T22:33:14.381Z,58.06
2023-04-19T22:35:15.849Z,58.33
2023-04-19T22:37:17.167Z,58.04
2023-04-19T22:39:18.598Z,58.29
2023-04-19T22:41:20.012Z,58.36
2023-04-19T22:43:21.457Z,58.56
2023-04-19T22:45:22.751Z,58.43
2023-04-19T22:47:24.084Z,58.43
2023-04-19T22:49:25.464Z,58.16
2023-04-19T22:51:27.864Z,58.16
2023-04-19T22:53:29.196Z,58.21
2023-04-19T22:55:30.631Z,58.34
2023-04-19T22:57:31.929Z,57.35
2023-04-19T22:59:33.263Z,57.73
2023-04-19T23:01:34.690Z,57.66
2023-04-19T23:03:36.185Z,57.97
2023-04-19T23:05:37.496Z,58.07
2023-04-19T23:07:40.117Z,58.04
2023-04-19T23:09:41.554Z,57.84
2023-04-19T23:11:44.823Z,58.49
2023-04-19T23:13:47.479Z,58.65
2023-04-19T23:15:48.855Z,58.60
2023-04-19T23:17:50.533Z,59.01
2023-04-19T23:19:51.890Z,58.65
2023-04-19T23:21:53.234Z,58.82
2023-04-19T23:23:54.541Z,59.47
2023-04-19T23:25:55.899Z,59.46
2023-04-19T23:27:57.316Z,59.21
2023-04-19T23:29:58.656Z,59.64
2023-04-19T23:31:59.989Z,59.85
2023-04-19T23:34:02.160Z,59.89
2023-04-19T23:36:03.461Z,59.85
2023-04-19T23:38:04.799Z,60.31
2023-04-19T23:40:06.329Z,60.37
2023-04-19T23:42:07.633Z,60.29
2023-04-19T23:44:08.928Z,60.18
2023-04-19T23:46:10.349Z,60.67
2023-04-19T23:48:11.803Z,60.57
2023-04-19T23:50:13.130Z,61.02
2023-04-19T23:52:14.506Z,61.33
2023-04-19T23:54:16.786Z,61.46
2023-04-19T23:56:18.099Z,62.14
2023-04-19T23:58:19.441Z,61.60
